Time;durP1;ratioP1;P1;durP2;ratioP2;P2;SDS_P1;SDS_P2;PMS_P1;PMS_P2;Temp;Humidity;BMP_temperature;BMP_pressure;BME280_temperature;BME280_humidity;BME280_pressure;Samples;Min_cycle;Max_cycle;Signal;HPM_P1;HPM_P2
2021/01/05 00:01:06;;;;;;;2.33;0.80;;;18.50;53.90;;;;;;10204841;29;20483;-54
2021/01/05 00:06:08;;;;;;;1.90;1.13;;;18.40;53.80;;;;;;10203063;29;20139;-56
2021/01/05 00:11:09;;;;;;;0.85;0.60;;;18.40;53.80;;;;;;10205958;29;20075;-53
2021/01/05 00:16:11;;;;;;;1.23;0.50;;;18.50;53.80;;;;;;10202072;29;20134;-54
2021/01/05 00:21:13;;;;;;;0.60;0.50;;;18.50;53.80;;;;;;10204957;28;20047;-47
2021/01/05 00:26:14;;;;;;;2.92;0.88;;;18.40;53.70;;;;;;10204366;29;20055;-50
2021/01/05 00:31:15;;;;;;;1.30;0.60;;;18.40;53.80;;;;;;10203434;29;20043;-52
2021/01/05 00:36:18;;;;;;;1.30;0.70;;;18.40;53.80;;;;;;10202301;29;20595;-51
2021/01/05 00:41:20;;;;;;;2.30;1.05;;;18.40;53.80;;;;;;10202782;29;20054;-51
2021/01/05 00:46:21;;;;;;;0.88;0.60;;;18.40;53.80;;;;;;10201258;29;20111;-51
2021/01/05 00:51:23;;;;;;;0.40;0.40;;;18.40;53.70;;;;;;10203450;29;20051;-48
2021/01/05 00:56:25;;;;;;;1.40;0.50;;;18.40;53.70;;;;;;10204164;29;20056;-52
2021/01/05 01:01:26;;;;;;;0.93;0.50;;;18.40;53.70;;;;;;10201818;29;20484;-53
2021/01/05 01:06:28;;;;;;;0.95;0.55;;;18.30;53.70;;;;;;10203402;29;20196;-51
2021/01/05 01:11:29;;;;;;;2.00;0.60;;;18.30;54.20;;;;;;10201385;29;20058;-48
2021/01/05 01:16:30;;;;;;;1.13;0.50;;;18.30;53.70;;;;;;10203558;29;20144;-52
2021/01/05 01:21:33;;;;;;;0.47;0.47;;;18.30;53.70;;;;;;10201015;29;20506;-49
2021/01/05 01:26:34;;;;;;;1.40;0.70;;;18.30;53.60;;;;;;10202217;29;20043;-54
2021/01/05 01:31:35;;;;;;;0.95;0.60;;;18.30;53.70;;;;;;10413981;23;20068;-53
2021/01/05 01:36:37;;;;;;;1.45;0.55;;;18.30;53.60;;;;;;10171713;29;20055;-50
2021/01/05 01:41:38;;;;;;;1.00;0.43;;;18.30;53.60;;;;;;10166399;29;20525;-56
2021/01/05 01:46:40;;;;;;;0.63;0.30;;;18.30;53.60;;;;;;10172265;29;20542;-48
2021/01/05 01:51:43;;;;;;;3.20;0.57;;;18.30;53.60;;;;;;10170975;29;20139;-55
2021/01/05 01:57:15;;;;;;;1.45;0.50;;;18.30;53.60;;;;;;10169434;29;20052;-54
2021/01/05 02:02:23;;;;;;;0.50;0.43;;;18.30;53.60;;;;;;10165777;29;20086;-50
2021/01/05 02:07:50;;;;;;;0.45;0.45;;;18.30;53.70;;;;;;10420480;23;20126;-53
2021/01/05 02:13:03;;;;;;;1.20;0.43;;;18.30;53.60;;;;;;10208648;29;20043;-53
2021/01/05 02:18:30;;;;;;;0.98;0.70;;;18.20;53.60;;;;;;10206294;29;20055;-52
2021/01/05 02:23:44;;;;;;;1.10;0.50;;;18.20;53.60;;;;;;10204856;29;20070;-53
2021/01/05 02:28:49;;;;;;;0.65;0.50;;;18.20;53.60;;;;;;10206829;29;20075;-52
2021/01/05 02:33:58;;;;;;;0.60;0.47;;;18.20;53.60;;;;;;10209700;29;20075;-50
2021/01/05 02:39:38;;;;;;;0.60;0.50;;;18.20;53.60;;;;;;10208389;29;20134;-52
2021/01/05 02:44:48;;;;;;;0.90;0.40;;;18.20;53.60;;;;;;10207458;29;20047;-51
2021/01/05 02:50:01;;;;;;;1.27;0.60;;;18.20;53.60;;;;;;10208251;29;20551;-54
2021/01/05 02:55:39;;;;;;;0.30;0.30;;;18.20;53.60;;;;;;10208180;29;20160;-52
2021/01/05 03:01:15;;;;;;;0.70;0.45;;;18.20;53.60;;;;;;10195947;29;20134;-49
2021/01/05 03:06:30;;;;;;;0.50;0.43;;;18.20;53.60;;;;;;10194932;29;20052;-52
2021/01/05 03:11:41;;;;;;;1.00;0.60;;;18.20;53.60;;;;;;10208081;29;20060;-48
2021/01/05 03:16:51;;;;;;;0.32;0.32;;;18.20;53.60;;;;;;10204509;29;20440;-51
2021/01/05 03:21:56;;;;;;;0.40;0.40;;;18.20;53.60;;;;;;10207201;29;20462;-50
2021/01/05 03:26:58;;;;;;;0.40;0.40;;;18.20;53.70;;;;;;10206731;29;20047;-53
2021/01/05 03:32:05;;;;;;;0.70;0.50;;;18.10;53.60;;;;;;10208215;29;20139;-52
2021/01/05 03:37:07;;;;;;;1.35;0.40;;;18.10;53.60;;;;;;10207063;29;20126;-52
2021/01/05 03:42:08;;;;;;;0.53;0.40;;;18.10;53.60;;;;;;10205905;29;20054;-52
2021/01/05 03:47:10;;;;;;;1.17;0.43;;;18.10;53.60;;;;;;10206035;29;20044;-53
2021/01/05 03:52:12;;;;;;;0.30;0.30;;;18.10;53.60;;;;;;10205392;29;20151;-52
2021/01/05 03:57:13;;;;;;;1.80;0.50;;;18.10;53.60;;;;;;10202873;29;20120;-50
2021/01/05 04:02:15;;;;;;;2.08;0.40;;;18.10;53.60;;;;;;10202965;29;20051;-49
2021/01/05 04:07:16;;;;;;;0.43;0.43;;;18.10;53.60;;;;;;10202516;29;20052;-50
2021/01/05 04:12:18;;;;;;;0.50;0.32;;;18.10;53.50;;;;;;10201545;29;20047;-49
2021/01/05 04:17:20;;;;;;;0.85;0.50;;;18.10;53.60;;;;;;10202579;29;20137;-51
2021/01/05 04:22:21;;;;;;;1.88;0.38;;;18.10;53.60;;;;;;10200802;29;20103;-48
2021/01/05 04:27:23;;;;;;;0.70;0.40;;;18.10;53.60;;;;;;10198010;29;20051;-48
2021/01/05 04:32:25;;;;;;;1.13;0.45;;;18.10;53.60;;;;;;10199866;29;20522;-48
2021/01/05 04:37:26;;;;;;;0.30;0.30;;;18.10;53.60;;;;;;10201519;29;20071;-50
2021/01/05 04:42:36;;;;;;;1.00;0.45;;;18.00;53.60;;;;;;10200604;29;20575;-52
2021/01/05 04:47:46;;;;;;;0.68;0.43;;;18.10;53.60;;;;;;10201583;29;20123;-53
2021/01/05 04:52:56;;;;;;;0.47;0.30;;;18.00;53.50;;;;;;10202236;29;20451;-52
2021/01/05 04:58:06;;;;;;;0.65;0.32;;;18.00;53.50;;;;;;10194651;29;20571;-51
2021/01/05 05:03:21;;;;;;;0.80;0.38;;;18.10;53.60;;;;;;10202154;29;20151;-49
2021/01/05 05:08:37;;;;;;;0.52;0.32;;;18.00;53.50;;;;;;10207126;29;20146;-52
2021/01/05 05:13:49;;;;;;;0.57;0.50;;;18.10;53.50;;;;;;10213164;29;20074;-52
2021/01/05 05:19:03;;;;;;;0.77;0.40;;;18.10;53.50;;;;;;10214843;29;20502;-49
2021/01/05 05:24:16;;;;;;;0.75;0.50;;;18.10;53.50;;;;;;10214070;29;20055;-49
2021/01/05 05:29:34;;;;;;;1.35;0.43;;;18.10;53.50;;;;;;10212177;29;20050;-51
2021/01/05 05:34:45;;;;;;;0.85;0.40;;;18.10;53.50;;;;;;10214624;29;20134;-53
2021/01/05 05:40:09;;;;;;;0.40;0.40;;;18.00;54.00;;;;;;10213525;29;20047;-52
2021/01/05 05:45:14;;;;;;;2.30;0.50;;;18.00;53.50;;;;;;10214028;29;21813;-51
2021/01/05 05:50:20;;;;;;;0.98;0.50;;;18.00;53.50;;;;;;10213763;29;20328;-53
2021/01/05 05:55:30;;;;;;;4.22;0.40;;;18.00;53.40;;;;;;10214469;29;20456;-48
2021/01/05 06:00:38;;;;;;;0.50;0.43;;;18.10;53.50;;;;;;10213320;29;20146;-50
2021/01/05 06:05:40;;;;;;;1.08;0.40;;;18.10;53.40;;;;;;10209566;29;20058;-53
2021/01/05 06:10:42;;;;;;;0.47;0.40;;;18.10;53.50;;;;;;10214992;29;20102;-50
2021/01/05 06:15:43;;;;;;;0.60;0.45;;;18.10;53.50;;;;;;10213595;29;20098;-49
2021/01/05 06:20:46;;;;;;;0.98;0.43;;;18.10;53.50;;;;;;10211029;28;20087;-51
2021/01/05 06:25:47;;;;;;;0.85;0.55;;;18.10;53.50;;;;;;10202802;29;20396;-51
2021/01/05 06:30:49;;;;;;;1.57;0.50;;;18.10;53.50;;;;;;10195745;29;20052;-51
2021/01/05 06:35:51;;;;;;;0.55;0.50;;;18.10;53.60;;;;;;10205784;29;20052;-54
2021/01/05 06:40:52;;;;;;;1.02;0.50;;;18.10;53.50;;;;;;10196957;29;20419;-47
2021/01/05 06:45:53;;;;;;;1.10;0.50;;;18.10;53.50;;;;;;10205474;29;20130;-53
2021/01/05 06:50:55;;;;;;;0.75;0.60;;;18.10;53.50;;;;;;10208621;29;20086;-50
2021/01/05 06:55:57;;;;;;;3.55;0.65;;;18.10;53.50;;;;;;10203504;29;20581;-54
2021/01/05 07:00:58;;;;;;;1.05;0.60;;;18.20;53.60;;;;;;10205494;29;20059;-52
2021/01/05 07:06:00;;;;;;;5.35;0.60;;;18.20;53.60;;;;;;10201293;29;20106;-54
2021/01/05 07:11:01;;;;;;;2.03;0.60;;;18.20;53.60;;;;;;10195956;29;20152;-54
2021/01/05 07:16:03;;;;;;;13.98;3.42;;;18.20;53.60;;;;;;10192035;29;20447;-53
2021/01/05 07:21:05;;;;;;;28.52;6.63;;;18.20;53.60;;;;;;10192203;29;20500;-52
2021/01/05 07:26:07;;;;;;;30.30;7.03;;;18.20;53.50;;;;;;10195802;29;20547;-53
2021/01/05 07:31:08;;;;;;;29.92;7.93;;;18.20;53.60;;;;;;10203806;29;20142;-52
2021/01/05 07:36:28;;;;;;;34.15;8.60;;;18.20;54.10;;;;;;10204362;29;20555;-50
2021/01/05 07:41:29;;;;;;;35.17;8.50;;;18.20;53.50;;;;;;10203678;29;20081;-50
2021/01/05 07:46:31;;;;;;;34.80;9.57;;;18.20;53.50;;;;;;10206190;29;20056;-52
2021/01/05 07:51:33;;;;;;;30.15;7.75;;;18.20;53.50;;;;;;10203319;29;20142;-52
2021/01/05 07:56:34;;;;;;;30.92;9.00;;;18.20;53.40;;;;;;10205876;29;20054;-53
2021/01/05 08:01:35;;;;;;;31.42;8.38;;;18.20;53.40;;;;;;10201944;29;20738;-54
2021/01/05 08:06:41;;;;;;;26.40;7.05;;;18.30;53.50;;;;;;10203844;29;20060;-51
2021/01/05 08:11:43;;;;;;;24.23;7.40;;;18.30;53.40;;;;;;10203223;29;20076;-49
2021/01/05 08:16:48;;;;;;;22.02;6.22;;;18.30;53.40;;;;;;10204267;29;20048;-51
2021/01/05 08:21:50;;;;;;;25.85;7.13;;;18.30;53.30;;;;;;10202717;29;20054;-53
2021/01/05 08:26:52;;;;;;;25.67;7.53;;;18.30;53.30;;;;;;10203808;29;20134;-55
2021/01/05 08:31:53;;;;;;;25.45;5.75;;;18.30;53.30;;;;;;10202099;29;20194;-53
2021/01/05 08:36:57;;;;;;;22.75;5.47;;;18.30;53.30;;;;;;10202845;29;20055;-51
2021/01/05 08:41:59;;;;;;;19.63;4.90;;;18.30;53.20;;;;;;10201177;29;20119;-52
2021/01/05 08:47:02;;;;;;;14.20;4.78;;;18.30;53.20;;;;;;10201101;29;20507;-53
2021/01/05 08:52:05;;;;;;;12.20;4.28;;;18.30;53.10;;;;;;10201592;29;20059;-53
2021/01/05 08:57:06;;;;;;;12.60;3.78;;;18.30;53.10;;;;;;10196856;29;20142;-56
2021/01/05 09:02:08;;;;;;;10.30;3.57;;;18.30;53.00;;;;;;10197839;29;20067;-51
2021/01/05 09:07:11;;;;;;;8.70;2.80;;;18.30;52.90;;;;;;10201218;29;20396;-54
2021/01/05 09:12:12;;;;;;;8.63;2.80;;;18.30;52.70;;;;;;10202058;29;20429;-55
2021/01/05 09:17:14;;;;;;;7.60;3.08;;;18.30;53.20;;;;;;10199743;29;20055;-55
2021/01/05 09:22:21;;;;;;;4.97;2.63;;;18.30;52.50;;;;;;10201889;29;20055;-51
2021/01/05 09:27:22;;;;;;;3.75;2.35;;;18.30;52.30;;;;;;10198980;29;20054;-54
2021/01/05 09:32:24;;;;;;;4.28;2.25;;;18.30;52.20;;;;;;10199833;29;20064;-54
2021/01/05 09:37:26;;;;;;;3.22;2.00;;;18.30;52.10;;;;;;10199696;29;20059;-53
2021/01/05 09:42:29;;;;;;;3.20;1.95;;;18.30;51.90;;;;;;10199984;29;20087;-56
2021/01/05 09:47:31;;;;;;;2.88;1.65;;;18.30;51.70;;;;;;10199318;29;20468;-53
2021/01/05 09:52:34;;;;;;;3.42;1.77;;;18.30;51.60;;;;;;10201150;29;20064;-55
2021/01/05 09:57:35;;;;;;;3.88;1.92;;;18.30;51.40;;;;;;10205707;29;20083;-53
2021/01/05 10:02:37;;;;;;;2.58;1.50;;;18.30;51.30;;;;;;10206691;29;20078;-56
2021/01/05 10:07:39;;;;;;;2.00;1.57;;;18.30;51.20;;;;;;10206241;29;20160;-56
2021/01/05 10:12:41;;;;;;;2.58;1.40;;;18.30;51.00;;;;;;10209730;29;20179;-48
2021/01/05 10:17:43;;;;;;;2.00;1.38;;;18.30;51.00;;;;;;10206064;29;20398;-49
2021/01/05 10:22:45;;;;;;;1.67;1.55;;;18.30;50.90;;;;;;10207575;29;20552;-50
2021/01/05 10:27:46;;;;;;;1.90;1.25;;;18.30;50.90;;;;;;10206934;29;20047;-51
2021/01/05 10:32:47;;;;;;;1.77;1.27;;;18.30;50.80;;;;;;10205120;29;20126;-49
2021/01/05 10:37:50;;;;;;;1.05;0.95;;;18.30;50.70;;;;;;10207893;29;20472;-51
2021/01/05 10:42:52;;;;;;;2.03;1.50;;;18.30;50.70;;;;;;10205605;29;20518;-53
2021/01/05 10:47:53;;;;;;;5.00;1.70;;;18.30;50.60;;;;;;10208940;29;20187;-51
2021/01/05 10:52:55;;;;;;;1.30;0.90;;;18.30;50.60;;;;;;10204694;29;20043;-51
2021/01/05 10:57:57;;;;;;;2.38;1.27;;;18.30;50.50;;;;;;10209397;29;20059;-53
2021/01/05 11:02:59;;;;;;;2.00;1.20;;;18.30;50.60;;;;;;10204494;29;20121;-56
2021/01/05 11:08:01;;;;;;;3.75;1.10;;;18.30;50.60;;;;;;10204880;29;20047;-54
2021/01/05 11:13:03;;;;;;;2.00;1.02;;;18.30;50.60;;;;;;10204096;29;20476;-52
2021/01/05 11:18:04;;;;;;;1.88;1.10;;;18.30;50.60;;;;;;10206912;29;20056;-47
2021/01/05 11:23:06;;;;;;;1.30;0.88;;;18.30;50.60;;;;;;10204430;29;20150;-49
2021/01/05 11:28:07;;;;;;;3.03;1.35;;;18.30;50.60;;;;;;10204820;29;20048;-53
2021/01/05 11:33:09;;;;;;;2.50;1.10;;;18.30;50.60;;;;;;10204868;29;20048;-52
2021/01/05 11:38:11;;;;;;;0.90;0.90;;;18.30;50.60;;;;;;10204084;29;20147;-48
2021/01/05 11:43:12;;;;;;;1.08;0.95;;;18.30;50.50;;;;;;10203989;29;20052;-49
2021/01/05 11:48:13;;;;;;;1.20;1.10;;;18.30;50.50;;;;;;10203594;29;20397;-48
2021/01/05 11:53:16;;;;;;;1.38;0.95;;;18.30;50.50;;;;;;10203669;29;20050;-51
2021/01/05 11:58:17;;;;;;;3.28;1.00;;;18.30;50.40;;;;;;10202531;29;20847;-50
2021/01/05 12:03:18;;;;;;;3.53;1.10;;;18.20;50.40;;;;;;10201582;29;20500;-53
2021/01/05 12:08:21;;;;;;;1.70;1.00;;;18.20;50.40;;;;;;10202970;29;20060;-48
2021/01/05 12:13:22;;;;;;;2.63;0.82;;;18.20;50.50;;;;;;10201961;29;20564;-47
2021/01/05 12:18:23;;;;;;;1.15;1.00;;;18.20;50.50;;;;;;10197813;29;20062;-50
2021/01/05 12:23:25;;;;;;;2.05;1.20;;;18.20;50.50;;;;;;10200846;29;20067;-49
2021/01/05 12:28:26;;;;;;;3.17;0.95;;;18.20;50.60;;;;;;10188920;29;20051;-49
2021/01/05 12:33:28;;;;;;;19.92;3.83;;;18.20;50.60;;;;;;10196388;29;20547;-51
2021/01/05 12:38:30;;;;;;;3.97;0.90;;;18.20;50.60;;;;;;10206346;29;20066;-54
2021/01/05 12:43:31;;;;;;;2.65;1.05;;;18.20;50.60;;;;;;10205580;29;20052;-52
2021/01/05 12:48:32;;;;;;;1.90;0.95;;;18.20;50.60;;;;;;10203881;29;20130;-53
2021/01/05 12:53:34;;;;;;;4.03;1.10;;;18.20;50.70;;;;;;10204924;29;20150;-55
2021/01/05 12:58:36;;;;;;;3.80;1.10;;;18.20;50.70;;;;;;10199494;29;20055;-52
2021/01/05 13:03:37;;;;;;;0.80;0.73;;;18.20;50.70;;;;;;10204059;29;20062;-49
2021/01/05 13:08:41;;;;;;;1.10;1.00;;;18.20;50.70;;;;;;10203563;29;20055;-51
2021/01/05 13:13:42;;;;;;;1.33;0.70;;;18.10;50.60;;;;;;10199401;29;20637;-50
2021/01/05 13:18:44;;;;;;;4.80;0.80;;;18.10;50.70;;;;;;10202075;29;20135;-52
2021/01/05 13:23:47;;;;;;;4.55;0.90;;;18.10;50.60;;;;;;10201021;29;20075;-51
2021/01/05 13:28:48;;;;;;;1.42;1.00;;;18.10;50.60;;;;;;10204378;28;20586;-49
2021/01/05 13:33:49;;;;;;;3.15;1.23;;;18.10;50.60;;;;;;10208562;29;20060;-48
2021/01/05 13:38:52;;;;;;;1.35;0.80;;;18.10;50.70;;;;;;10211594;29;20480;-49
2021/01/05 13:43:54;;;;;;;1.90;0.82;;;18.10;50.60;;;;;;10208101;29;20051;-51
2021/01/05 13:48:56;;;;;;;0.80;0.68;;;18.10;50.70;;;;;;10208358;29;20270;-49
2021/01/05 13:53:59;;;;;;;1.42;0.93;;;18.10;50.70;;;;;;10202807;29;20147;-48
2021/01/05 13:59:01;;;;;;;1.48;0.70;;;18.10;50.70;;;;;;10202464;29;20142;-50
2021/01/05 14:04:02;;;;;;;1.08;0.80;;;18.20;50.70;;;;;;10207951;29;20055;-51
2021/01/05 14:09:05;;;;;;;1.58;0.80;;;18.20;50.70;;;;;;10209342;29;20274;-50
2021/01/05 14:14:06;;;;;;;2.08;1.10;;;18.20;50.70;;;;;;10205063;29;20043;-52
2021/01/05 14:19:07;;;;;;;1.48;0.68;;;18.20;50.70;;;;;;10208694;29;20134;-50
2021/01/05 14:24:15;;;;;;;2.33;0.80;;;18.20;50.80;;;;;;10205494;29;20072;-50
2021/01/05 14:29:20;;;;;;;2.95;0.80;;;18.20;50.80;;;;;;10206436;29;20404;-47
2021/01/05 14:34:22;;;;;;;2.17;0.88;;;18.30;50.90;;;;;;10208993;29;20095;-49
2021/01/05 14:39:25;;;;;;;;;;;18.30;51.00;;;;;;10209686;29;20147;-48
2021/01/05 14:44:29;;;;;;;3.97;0.93;;;18.30;51.10;;;;;;10203098;29;19923;-50
2021/01/05 14:49:30;;;;;;;2.58;0.90;;;18.30;51.10;;;;;;10206345;29;20507;-50
2021/01/05 14:54:33;;;;;;;3.10;0.90;;;18.30;51.10;;;;;;10207254;29;21353;-47
2021/01/05 14:59:36;;;;;;;1.30;0.65;;;18.40;51.20;;;;;;10201318;29;20086;-47
2021/01/05 15:04:38;;;;;;;1.05;0.60;;;18.30;51.20;;;;;;10203266;29;20547;-52
2021/01/05 15:09:41;;;;;;;2.97;0.90;;;18.40;51.30;;;;;;10204629;29;20050;-51
2021/01/05 15:14:42;;;;;;;4.47;1.27;;;18.40;51.40;;;;;;10207621;29;20166;-50
2021/01/05 15:19:43;;;;;;;2.63;1.17;;;18.40;51.50;;;;;;10205842;29;20118;-55
2021/01/05 15:24:46;;;;;;;5.22;1.10;;;18.40;51.50;;;;;;10205837;29;20071;-55
2021/01/05 15:29:47;;;;;;;2.95;0.82;;;18.40;51.50;;;;;;10205089;29;20464;-51
2021/01/05 15:34:48;;;;;;;4.03;1.52;;;18.50;51.60;;;;;;10206597;29;20055;-55
2021/01/05 15:39:50;;;;;;;2.67;1.00;;;18.50;51.70;;;;;;10205769;29;20553;-50
2021/01/05 15:44:52;;;;;;;2.00;1.13;;;18.50;51.70;;;;;;10205349;29;20538;-50
2021/01/05 15:49:53;;;;;;;4.15;1.10;;;18.50;51.80;;;;;;10201964;29;20670;-52
2021/01/05 15:54:57;;;;;;;5.07;1.13;;;18.50;51.80;;;;;;10204549;29;20047;-48
2021/01/05 15:59:59;;;;;;;3.78;1.20;;;18.50;51.80;;;;;;10202555;29;20419;-51
2021/01/05 16:05:00;;;;;;;1.98;1.15;;;18.50;51.80;;;;;;10205434;29;20098;-50
2021/01/05 16:10:03;;;;;;;1.58;0.95;;;18.50;51.80;;;;;;10204717;29;20074;-50
2021/01/05 16:15:05;;;;;;;4.47;1.20;;;18.50;51.80;;;;;;10206134;29;20508;-52
2021/01/05 16:20:07;;;;;;;;;;;18.50;51.80;;;;;;10203987;29;20052;-52
2021/01/05 16:25:14;;;;;;;2.75;1.15;;;18.50;51.90;;;;;;10204151;29;20045;-54
2021/01/05 16:30:24;;;;;;;4.78;1.15;;;18.50;51.80;;;;;;10201380;29;20074;-51
2021/01/05 16:35:26;;;;;;;3.75;1.45;;;18.50;51.90;;;;;;10202712;29;20130;-53
2021/01/05 16:40:30;;;;;;;2.65;1.75;;;18.50;51.90;;;;;;10201220;29;20610;-47
2021/01/05 16:45:32;;;;;;;2.00;1.60;;;18.50;51.90;;;;;;10202330;29;20095;-47
2021/01/05 16:50:35;;;;;;;2.35;1.58;;;18.40;51.80;;;;;;10204515;29;20063;-52
2021/01/05 16:55:41;;;;;;;2.55;1.55;;;18.50;51.80;;;;;;10204687;29;20506;-49
2021/01/05 17:00:42;;;;;;;3.42;2.03;;;18.50;51.80;;;;;;10201973;29;20488;-51
2021/01/05 17:05:44;;;;;;;3.05;1.88;;;18.50;51.80;;;;;;10202072;29;20056;-55
2021/01/05 17:10:51;;;;;;;2.90;2.08;;;18.50;51.80;;;;;;10200585;29;20407;-52
2021/01/05 17:15:52;;;;;;;3.63;2.30;;;18.50;51.80;;;;;;10200809;29;20051;-52
2021/01/05 17:20:54;;;;;;;3.75;1.83;;;18.50;51.70;;;;;;10202893;29;20150;-52
2021/01/05 17:25:56;;;;;;;3.53;2.30;;;18.50;51.80;;;;;;10201598;29;20126;-47
2021/01/05 17:30:57;;;;;;;3.83;2.30;;;18.50;51.70;;;;;;10199645;29;20416;-49
2021/01/05 17:35:58;;;;;;;5.95;1.92;;;18.50;51.70;;;;;;10200200;29;20078;-50
2021/01/05 17:41:00;;;;;;;3.80;2.28;;;18.50;51.70;;;;;;10205029;29;20052;-51
2021/01/05 17:46:02;;;;;;;3.97;2.10;;;18.50;51.60;;;;;;10201805;29;20052;-52
2021/01/05 17:51:04;;;;;;;7.07;3.27;;;18.40;51.60;;;;;;10204956;29;20052;-53
2021/01/05 17:56:06;;;;;;;3.17;2.30;;;18.50;51.70;;;;;;10202172;29;20130;-52
2021/01/05 18:01:08;;;;;;;3.40;2.20;;;18.50;51.70;;;;;;10200885;29;20518;-53
2021/01/05 18:06:09;;;;;;;3.90;2.58;;;18.50;51.60;;;;;;10201376;29;20074;-53
2021/01/05 18:11:14;;;;;;;3.22;2.08;;;18.50;51.60;;;;;;10203387;29;20044;-48
2021/01/05 18:16:19;;;;;;;7.00;2.65;;;18.50;51.70;;;;;;10201913;29;20652;-50
2021/01/05 18:21:23;;;;;;;6.47;3.08;;;18.50;51.90;;;;;;10207893;29;20159;-49
2021/01/05 18:26:29;;;;;;;10.95;4.32;;;18.50;51.80;;;;;;10205180;29;20052;-47
2021/01/05 18:31:30;;;;;;;10.52;5.38;;;18.50;51.90;;;;;;10209785;29;20095;-48
2021/01/05 18:36:36;;;;;;;9.32;3.45;;;18.50;52.00;;;;;;10208622;29;20095;-49
2021/01/05 18:41:38;;;;;;;11.85;4.03;;;18.50;52.10;;;;;;10206905;29;20056;-50
2021/01/05 18:46:43;;;;;;;8.90;4.20;;;18.50;52.10;;;;;;10204866;29;20134;-47
2021/01/05 18:51:45;;;;;;;10.20;3.95;;;18.50;52.20;;;;;;10204573;29;20051;-47
2021/01/05 18:56:49;;;;;;;12.38;4.15;;;18.50;52.20;;;;;;10210327;29;20047;-46
2021/01/05 19:01:51;;;;;;;12.18;3.97;;;18.50;52.30;;;;;;10207610;29;20055;-48
2021/01/05 19:06:55;;;;;;;8.00;3.90;;;18.50;52.30;;;;;;10204970;29;20669;-51
2021/01/05 19:11:57;;;;;;;9.68;3.40;;;18.50;52.40;;;;;;10203488;29;20043;-56
2021/01/05 19:16:59;;;;;;;7.68;3.85;;;18.50;52.60;;;;;;10205106;29;20484;-51
2021/01/05 19:22:01;;;;;;;6.97;3.90;;;18.50;52.70;;;;;;10202525;29;20055;-48
2021/01/05 19:27:04;;;;;;;9.50;3.67;;;18.50;52.70;;;;;;10200911;29;20043;-57
2021/01/05 19:32:06;;;;;;;7.47;4.03;;;18.50;52.80;;;;;;10203806;29;20427;-55
2021/01/05 19:37:11;;;;;;;9.25;4.35;;;18.50;52.80;;;;;;10206676;29;20047;-54
2021/01/05 19:42:13;;;;;;;8.05;3.80;;;18.50;52.90;;;;;;10206161;29;20130;-56
2021/01/05 19:47:15;;;;;;;13.18;5.47;;;18.50;52.90;;;;;;10206720;29;20420;-54
2021/01/05 19:52:17;;;;;;;22.02;7.80;;;18.50;53.00;;;;;;10198838;29;20061;-58
2021/01/05 19:57:19;;;;;;;24.67;10.05;;;18.50;53.00;;;;;;10203607;29;20139;-58
2021/01/05 20:02:20;;;;;;;21.02;8.52;;;18.50;53.00;;;;;;10203535;29;20055;-59
2021/01/05 20:07:21;;;;;;;22.17;8.88;;;18.50;53.00;;;;;;10192580;29;20687;-60
2021/01/05 20:12:23;;;;;;;20.92;8.23;;;18.60;53.20;;;;;;10205660;29;20062;-61
2021/01/05 20:17:25;;;;;;;16.67;6.80;;;18.60;53.20;;;;;;10202833;29;20134;-61
2021/01/05 20:22:26;;;;;;;17.33;8.10;;;18.60;53.20;;;;;;10204240;29;20516;-61
2021/01/05 20:27:29;;;;;;;16.23;5.85;;;18.60;53.20;;;;;;10204063;29;20044;-60
2021/01/05 20:32:30;;;;;;;16.98;5.78;;;18.60;53.20;;;;;;10201270;29;20082;-59
2021/01/05 20:37:31;;;;;;;14.32;4.70;;;18.60;53.30;;;;;;10203762;29;20075;-61
2021/01/05 20:42:33;;;;;;;10.43;4.60;;;18.60;53.40;;;;;;10202942;29;20142;-58
2021/01/05 20:47:35;;;;;;;9.98;4.90;;;18.60;53.40;;;;;;10201818;29;21340;-59
2021/01/05 20:52:36;;;;;;;8.68;3.70;;;18.60;53.40;;;;;;10205505;29;20056;-58
2021/01/05 20:57:39;;;;;;;11.27;4.23;;;18.60;53.40;;;;;;10203050;29;20175;-58
2021/01/05 21:02:40;;;;;;;9.75;4.18;;;18.60;53.50;;;;;;10203553;29;20142;-58
2021/01/05 21:07:42;;;;;;;9.75;3.78;;;18.60;53.50;;;;;;10202494;29;20591;-59
2021/01/05 21:12:44;;;;;;;4.93;3.20;;;18.60;53.50;;;;;;10203104;29;20058;-59
2021/01/05 21:17:45;;;;;;;12.10;3.47;;;18.60;53.50;;;;;;10201109;29;20126;-59
2021/01/05 21:22:47;;;;;;;6.18;2.95;;;18.60;53.50;;;;;;10202719;29;20080;-59
2021/01/05 21:27:50;;;;;;;8.52;3.40;;;18.60;53.50;;;;;;10202892;29;20059;-58
2021/01/05 21:32:52;;;;;;;4.63;2.47;;;18.60;53.50;;;;;;10202057;29;20044;-59
2021/01/05 21:37:55;;;;;;;9.73;2.70;;;18.60;53.50;;;;;;10204504;29;20040;-59
2021/01/05 21:42:57;;;;;;;6.78;2.90;;;18.60;53.60;;;;;;10206643;29;20060;-60
2021/01/05 21:47:59;;;;;;;;;;;18.60;53.60;;;;;;10202594;29;20047;-59
2021/01/05 21:53:01;;;;;;;5.13;2.78;;;18.60;53.70;;;;;;10211051;29;19929;-59
2021/01/05 21:58:07;;;;;;;6.07;2.50;;;18.60;53.70;;;;;;10210623;29;20047;-59
2021/01/05 22:03:08;;;;;;;7.93;2.55;;;18.60;53.80;;;;;;10214349;29;20063;-59
2021/01/05 22:08:10;;;;;;;4.97;2.10;;;18.60;53.80;;;;;;10208320;29;20435;-59
2021/01/05 22:13:14;;;;;;;4.95;2.60;;;18.70;53.80;;;;;;10213515;29;20463;-59
2021/01/05 22:18:16;;;;;;;6.13;2.50;;;18.60;53.80;;;;;;10212607;29;20082;-59
2021/01/05 22:23:19;;;;;;;4.80;2.10;;;18.60;53.80;;;;;;10213917;29;20051;-59
2021/01/05 22:28:22;;;;;;;7.35;2.22;;;18.60;53.80;;;;;;10212394;29;20054;-59
2021/01/05 22:33:23;;;;;;;5.55;1.95;;;18.60;53.80;;;;;;10207947;29;20051;-59
2021/01/05 22:38:27;;;;;;;3.85;1.90;;;18.60;53.80;;;;;;10210332;29;20059;-61
2021/01/05 22:43:31;;;;;;;8.55;2.47;;;18.60;53.80;;;;;;10198606;29;20067;-59
2021/01/05 22:48:32;;;;;;;9.38;2.50;;;18.60;53.80;;;;;;10197854;29;20051;-60
2021/01/05 22:53:34;;;;;;;5.23;2.33;;;18.50;53.70;;;;;;10206499;29;20443;-59
2021/01/05 22:58:36;;;;;;;5.90;2.90;;;18.60;53.80;;;;;;10209094;29;20055;-60
2021/01/05 23:03:38;;;;;;;3.38;1.83;;;18.50;53.70;;;;;;10205315;29;20059;-60
2021/01/05 23:08:41;;;;;;;4.60;2.00;;;18.50;53.80;;;;;;10208996;29;20522;-60
2021/01/05 23:13:45;;;;;;;3.17;1.60;;;18.50;53.80;;;;;;10206630;29;20074;-60
2021/01/05 23:18:46;;;;;;;4.47;2.10;;;18.50;53.80;;;;;;10205319;29;20047;-59
2021/01/05 23:23:48;;;;;;;4.15;2.92;;;18.50;53.80;;;;;;10207269;29;20062;-59
2021/01/05 23:28:51;;;;;;;6.75;1.95;;;18.50;53.80;;;;;;10205847;29;20052;-60
2021/01/05 23:33:52;;;;;;;3.70;2.25;;;18.50;53.80;;;;;;10205391;29;20058;-60
2021/01/05 23:38:53;;;;;;;6.40;1.98;;;18.50;53.80;;;;;;10206266;29;20463;-60
2021/01/05 23:43:56;;;;;;;4.32;2.13;;;18.40;53.70;;;;;;10205431;29;20083;-60
2021/01/05 23:48:57;;;;;;;7.50;2.20;;;18.40;53.70;;;;;;10202817;29;20138;-60
2021/01/05 23:53:59;;;;;;;6.10;2.10;;;18.40;53.70;;;;;;10202662;29;20146;-60
2021/01/05 23:59:03;;;;;;;3.97;1.65;;;18.40;53.70;;;;;;10203380;29;20051;-60
